sensor_id;sensor_type;location;lat;lon;timestamp;P1;durP1;ratioP1;P2;durP2;ratioP2
43706;SDS011;61348;53.392;-6.248;2022-11-14T00:01:05;4.10;;;2.00;;
43706;SDS011;61348;53.392;-6.248;2022-11-14T00:03:37;4.88;;;1.33;;
43706;SDS011;61348;53.392;-6.248;2022-11-14T00:06:05;1.52;;;1.00;;
43706;SDS011;61348;53.392;-6.248;2022-11-14T00:08:32;1.60;;;0.65;;
43706;SDS011;61348;53.392;-6.248;2022-11-14T00:10:59;3.53;;;1.45;;
43706;SDS011;61348;53.392;-6.248;2022-11-14T00:13:26;2.40;;;0.90;;
43706;SDS011;61348;53.392;-6.248;2022-11-14T00:15:53;3.33;;;1.23;;
43706;SDS011;61348;53.392;-6.248;2022-11-14T00:18:20;2.10;;;0.90;;
43706;SDS011;61348;53.392;-6.248;2022-11-14T00:20:48;1.40;;;0.88;;
43706;SDS011;61348;53.392;-6.248;2022-11-14T00:23:16;1.48;;;1.00;;
43706;SDS011;61348;53.392;-6.248;2022-11-14T00:25:44;1.63;;;1.02;;
43706;SDS011;61348;53.392;-6.248;2022-11-14T00:28:11;3.80;;;2.53;;
43706;SDS011;61348;53.392;-6.248;2022-11-14T00:30:38;1.85;;;1.00;;
43706;SDS011;61348;53.392;-6.248;2022-11-14T00:33:05;2.90;;;1.33;;
43706;SDS011;61348;53.392;-6.248;2022-11-14T00:35:31;4.65;;;1.42;;
43706;SDS011;61348;53.392;-6.248;2022-11-14T00:37:58;4.68;;;1.63;;
43706;SDS011;61348;53.392;-6.248;2022-11-14T00:40:26;2.78;;;1.45;;
43706;SDS011;61348;53.392;-6.248;2022-11-14T00:42:53;3.35;;;1.80;;
43706;SDS011;61348;53.392;-6.248;2022-11-14T00:45:20;3.92;;;1.27;;
43706;SDS011;61348;53.392;-6.248;2022-11-14T00:47:46;2.53;;;1.40;;
43706;SDS011;61348;53.392;-6.248;2022-11-14T00:50:14;4.68;;;1.63;;
43706;SDS011;61348;53.392;-6.248;2022-11-14T00:52:42;4.40;;;2.10;;
43706;SDS011;61348;53.392;-6.248;2022-11-14T00:55:09;4.35;;;1.60;;
43706;SDS011;61348;53.392;-6.248;2022-11-14T00:57:36;3.95;;;1.48;;
43706;SDS011;61348;53.392;-6.248;2022-11-14T01:00:04;6.45;;;2.28;;
43706;SDS011;61348;53.392;-6.248;2022-11-14T01:02:31;3.65;;;1.50;;
43706;SDS011;61348;53.392;-6.248;2022-11-14T01:04:58;4.38;;;1.52;;
43706;SDS011;61348;53.392;-6.248;2022-11-14T01:07:25;11.20;;;4.47;;
43706;SDS011;61348;53.392;-6.248;2022-11-14T01:09:52;4.93;;;1.35;;
43706;SDS011;61348;53.392;-6.248;2022-11-14T01:12:19;5.25;;;1.70;;
43706;SDS011;61348;53.392;-6.248;2022-11-14T01:14:46;5.05;;;2.35;;
43706;SDS011;61348;53.392;-6.248;2022-11-14T01:17:13;2.92;;;1.00;;
43706;SDS011;61348;53.392;-6.248;2022-11-14T01:19:40;1.98;;;1.38;;
43706;SDS011;61348;53.392;-6.248;2022-11-14T01:22:06;6.05;;;1.95;;
43706;SDS011;61348;53.392;-6.248;2022-11-14T01:24:33;7.28;;;2.05;;
43706;SDS011;61348;53.392;-6.248;2022-11-14T01:27:00;2.13;;;1.00;;
43706;SDS011;61348;53.392;-6.248;2022-11-14T01:29:27;3.03;;;0.85;;
43706;SDS011;61348;53.392;-6.248;2022-11-14T01:31:54;2.05;;;0.90;;
43706;SDS011;61348;53.392;-6.248;2022-11-14T01:34:22;1.90;;;1.10;;
43706;SDS011;61348;53.392;-6.248;2022-11-14T01:36:52;2.30;;;0.88;;
43706;SDS011;61348;53.392;-6.248;2022-11-14T01:39:18;3.05;;;0.82;;
43706;SDS011;61348;53.392;-6.248;2022-11-14T01:41:45;1.38;;;0.75;;
43706;SDS011;61348;53.392;-6.248;2022-11-14T01:44:16;1.05;;;0.50;;
43706;SDS011;61348;53.392;-6.248;2022-11-14T01:47:02;3.42;;;0.82;;
43706;SDS011;61348;53.392;-6.248;2022-11-14T01:49:35;6.13;;;1.10;;
43706;SDS011;61348;53.392;-6.248;2022-11-14T01:52:15;5.35;;;1.35;;
43706;SDS011;61348;53.392;-6.248;2022-11-14T01:54:44;5.97;;;1.70;;
43706;SDS011;61348;53.392;-6.248;2022-11-14T01:57:14;3.75;;;1.35;;
43706;SDS011;61348;53.392;-6.248;2022-11-14T01:59:47;7.18;;;2.00;;
43706;SDS011;61348;53.392;-6.248;2022-11-14T02:02:18;4.32;;;1.45;;
43706;SDS011;61348;53.392;-6.248;2022-11-14T02:04:52;3.72;;;1.85;;
43706;SDS011;61348;53.392;-6.248;2022-11-14T02:07:32;3.03;;;1.33;;
43706;SDS011;61348;53.392;-6.248;2022-11-14T02:10:08;3.30;;;1.00;;
43706;SDS011;61348;53.392;-6.248;2022-11-14T02:12:40;2.97;;;1.10;;
43706;SDS011;61348;53.392;-6.248;2022-11-14T02:15:07;4.32;;;0.90;;
43706;SDS011;61348;53.392;-6.248;2022-11-14T02:17:35;4.50;;;1.35;;
43706;SDS011;61348;53.392;-6.248;2022-11-14T02:22:30;1.58;;;0.80;;
43706;SDS011;61348;53.392;-6.248;2022-11-14T02:24:57;3.60;;;0.88;;
43706;SDS011;61348;53.392;-6.248;2022-11-14T02:27:24;2.20;;;0.82;;
43706;SDS011;61348;53.392;-6.248;2022-11-14T02:29:52;1.58;;;1.23;;
43706;SDS011;61348;53.392;-6.248;2022-11-14T02:32:18;2.33;;;0.90;;
43706;SDS011;61348;53.392;-6.248;2022-11-14T02:34:45;1.80;;;0.88;;
43706;SDS011;61348;53.392;-6.248;2022-11-14T02:37:12;5.40;;;1.10;;
43706;SDS011;61348;53.392;-6.248;2022-11-14T02:39:39;2.40;;;1.15;;
43706;SDS011;61348;53.392;-6.248;2022-11-14T02:42:06;2.42;;;1.05;;
43706;SDS011;61348;53.392;-6.248;2022-11-14T02:44:33;3.65;;;0.80;;
43706;SDS011;61348;53.392;-6.248;2022-11-14T02:47:00;3.40;;;1.13;;
43706;SDS011;61348;53.392;-6.248;2022-11-14T02:49:27;2.08;;;1.00;;
43706;SDS011;61348;53.392;-6.248;2022-11-14T02:51:53;2.95;;;1.60;;
43706;SDS011;61348;53.392;-6.248;2022-11-14T02:54:20;4.60;;;1.33;;
43706;SDS011;61348;53.392;-6.248;2022-11-14T02:56:47;4.47;;;0.90;;
43706;SDS011;61348;53.392;-6.248;2022-11-14T02:59:14;4.72;;;0.93;;
43706;SDS011;61348;53.392;-6.248;2022-11-14T03:01:40;2.10;;;1.00;;
43706;SDS011;61348;53.392;-6.248;2022-11-14T03:04:08;3.03;;;1.52;;
43706;SDS011;61348;53.392;-6.248;2022-11-14T03:06:35;4.63;;;1.33;;
43706;SDS011;61348;53.392;-6.248;2022-11-14T03:09:02;3.55;;;1.08;;
43706;SDS011;61348;53.392;-6.248;2022-11-14T03:11:29;4.40;;;1.58;;
43706;SDS011;61348;53.392;-6.248;2022-11-14T03:13:57;2.90;;;1.15;;
43706;SDS011;61348;53.392;-6.248;2022-11-14T03:16:25;2.55;;;1.70;;
43706;SDS011;61348;53.392;-6.248;2022-11-14T03:18:52;5.50;;;1.38;;
43706;SDS011;61348;53.392;-6.248;2022-11-14T03:21:20;7.68;;;1.58;;
43706;SDS011;61348;53.392;-6.248;2022-11-14T03:23:48;3.63;;;1.50;;
43706;SDS011;61348;53.392;-6.248;2022-11-14T03:26:15;2.38;;;1.38;;
43706;SDS011;61348;53.392;-6.248;2022-11-14T03:28:42;6.93;;;1.42;;
43706;SDS011;61348;53.392;-6.248;2022-11-14T03:31:10;3.45;;;1.23;;
43706;SDS011;61348;53.392;-6.248;2022-11-14T03:33:38;3.67;;;1.92;;
43706;SDS011;61348;53.392;-6.248;2022-11-14T03:36:05;5.88;;;1.40;;
43706;SDS011;61348;53.392;-6.248;2022-11-14T03:38:33;2.20;;;1.45;;
43706;SDS011;61348;53.392;-6.248;2022-11-14T03:41:00;2.38;;;1.60;;
43706;SDS011;61348;53.392;-6.248;2022-11-14T03:43:30;3.92;;;1.20;;
43706;SDS011;61348;53.392;-6.248;2022-11-14T03:45:59;4.60;;;1.45;;
43706;SDS011;61348;53.392;-6.248;2022-11-14T03:48:27;1.75;;;1.27;;
43706;SDS011;61348;53.392;-6.248;2022-11-14T03:50:55;4.18;;;1.67;;
43706;SDS011;61348;53.392;-6.248;2022-11-14T03:53:23;6.35;;;1.80;;
43706;SDS011;61348;53.392;-6.248;2022-11-14T03:55:50;6.95;;;1.70;;
43706;SDS011;61348;53.392;-6.248;2022-11-14T03:58:17;3.13;;;1.40;;
43706;SDS011;61348;53.392;-6.248;2022-11-14T04:00:44;2.05;;;1.40;;
43706;SDS011;61348;53.392;-6.248;2022-11-14T04:03:11;1.90;;;1.05;;
43706;SDS011;61348;53.392;-6.248;2022-11-14T04:05:38;5.05;;;2.13;;
43706;SDS011;61348;53.392;-6.248;2022-11-14T04:08:05;3.88;;;1.50;;
43706;SDS011;61348;53.392;-6.248;2022-11-14T04:10:32;4.80;;;1.75;;
43706;SDS011;61348;53.392;-6.248;2022-11-14T04:12:59;4.13;;;2.00;;
43706;SDS011;61348;53.392;-6.248;2022-11-14T04:15:26;2.42;;;0.98;;
43706;SDS011;61348;53.392;-6.248;2022-11-14T04:17:53;4.18;;;1.58;;
43706;SDS011;61348;53.392;-6.248;2022-11-14T04:20:19;4.65;;;1.65;;
43706;SDS011;61348;53.392;-6.248;2022-11-14T04:22:46;4.40;;;1.63;;
43706;SDS011;61348;53.392;-6.248;2022-11-14T04:25:13;4.15;;;2.22;;
43706;SDS011;61348;53.392;-6.248;2022-11-14T04:27:40;7.55;;;2.67;;
43706;SDS011;61348;53.392;-6.248;2022-11-14T04:30:10;6.15;;;2.63;;
43706;SDS011;61348;53.392;-6.248;2022-11-14T04:32:37;7.60;;;2.28;;
43706;SDS011;61348;53.392;-6.248;2022-11-14T04:35:04;8.38;;;1.90;;
43706;SDS011;61348;53.392;-6.248;2022-11-14T04:37:31;4.25;;;1.80;;
43706;SDS011;61348;53.392;-6.248;2022-11-14T04:39:58;4.50;;;1.75;;
43706;SDS011;61348;53.392;-6.248;2022-11-14T04:42:27;2.47;;;1.70;;
43706;SDS011;61348;53.392;-6.248;2022-11-14T04:44:54;4.93;;;1.98;;
43706;SDS011;61348;53.392;-6.248;2022-11-14T04:47:21;6.10;;;2.00;;
43706;SDS011;61348;53.392;-6.248;2022-11-14T04:49:48;6.75;;;2.72;;
43706;SDS011;61348;53.392;-6.248;2022-11-14T04:52:15;7.15;;;3.15;;
43706;SDS011;61348;53.392;-6.248;2022-11-14T04:54:41;4.55;;;3.05;;
43706;SDS011;61348;53.392;-6.248;2022-11-14T04:57:08;6.82;;;3.42;;
43706;SDS011;61348;53.392;-6.248;2022-11-14T04:59:35;5.30;;;2.80;;
43706;SDS011;61348;53.392;-6.248;2022-11-14T05:02:01;5.18;;;2.97;;
43706;SDS011;61348;53.392;-6.248;2022-11-14T05:04:28;6.82;;;3.78;;
43706;SDS011;61348;53.392;-6.248;2022-11-14T05:06:56;5.65;;;3.72;;
43706;SDS011;61348;53.392;-6.248;2022-11-14T05:09:23;10.07;;;3.10;;
43706;SDS011;61348;53.392;-6.248;2022-11-14T05:11:49;9.40;;;3.88;;
43706;SDS011;61348;53.392;-6.248;2022-11-14T05:14:16;5.30;;;4.20;;
43706;SDS011;61348;53.392;-6.248;2022-11-14T05:16:43;5.38;;;4.10;;
43706;SDS011;61348;53.392;-6.248;2022-11-14T05:19:10;11.35;;;5.18;;
43706;SDS011;61348;53.392;-6.248;2022-11-14T05:21:37;6.80;;;4.18;;
43706;SDS011;61348;53.392;-6.248;2022-11-14T05:24:03;10.77;;;4.97;;
43706;SDS011;61348;53.392;-6.248;2022-11-14T05:26:30;9.98;;;5.43;;
43706;SDS011;61348;53.392;-6.248;2022-11-14T05:28:57;11.82;;;5.93;;
43706;SDS011;61348;53.392;-6.248;2022-11-14T05:31:24;9.75;;;5.57;;
43706;SDS011;61348;53.392;-6.248;2022-11-14T05:33:51;12.27;;;5.82;;
43706;SDS011;61348;53.392;-6.248;2022-11-14T05:36:17;10.77;;;5.43;;
43706;SDS011;61348;53.392;-6.248;2022-11-14T05:38:44;12.90;;;7.45;;
43706;SDS011;61348;53.392;-6.248;2022-11-14T05:41:12;8.27;;;5.55;;
43706;SDS011;61348;53.392;-6.248;2022-11-14T05:43:40;9.20;;;4.80;;
43706;SDS011;61348;53.392;-6.248;2022-11-14T05:46:09;9.98;;;5.45;;
43706;SDS011;61348;53.392;-6.248;2022-11-14T05:48:38;11.88;;;5.90;;
43706;SDS011;61348;53.392;-6.248;2022-11-14T05:51:06;6.05;;;4.45;;
43706;SDS011;61348;53.392;-6.248;2022-11-14T05:53:35;10.38;;;4.47;;
43706;SDS011;61348;53.392;-6.248;2022-11-14T05:56:06;10.07;;;4.97;;
43706;SDS011;61348;53.392;-6.248;2022-11-14T05:58:35;8.63;;;5.28;;
43706;SDS011;61348;53.392;-6.248;2022-11-14T06:01:09;6.68;;;4.18;;
43706;SDS011;61348;53.392;-6.248;2022-11-14T06:03:39;6.40;;;4.13;;
43706;SDS011;61348;53.392;-6.248;2022-11-14T06:06:09;5.70;;;4.18;;
43706;SDS011;61348;53.392;-6.248;2022-11-14T06:08:37;6.80;;;3.88;;
43706;SDS011;61348;53.392;-6.248;2022-11-14T06:11:06;6.55;;;4.38;;
43706;SDS011;61348;53.392;-6.248;2022-11-14T06:13:35;5.25;;;3.72;;
43706;SDS011;61348;53.392;-6.248;2022-11-14T06:16:03;5.90;;;4.35;;
43706;SDS011;61348;53.392;-6.248;2022-11-14T06:18:32;5.47;;;3.65;;
43706;SDS011;61348;53.392;-6.248;2022-11-14T06:21:04;8.00;;;3.78;;
43706;SDS011;61348;53.392;-6.248;2022-11-14T06:23:31;8.43;;;3.53;;
43706;SDS011;61348;53.392;-6.248;2022-11-14T06:26:01;6.07;;;3.28;;
43706;SDS011;61348;53.392;-6.248;2022-11-14T06:28:30;6.68;;;3.42;;
43706;SDS011;61348;53.392;-6.248;2022-11-14T06:30:58;5.47;;;3.03;;
43706;SDS011;61348;53.392;-6.248;2022-11-14T06:33:26;5.05;;;2.40;;
43706;SDS011;61348;53.392;-6.248;2022-11-14T06:35:58;5.35;;;2.88;;
43706;SDS011;61348;53.392;-6.248;2022-11-14T06:38:25;4.78;;;2.60;;
43706;SDS011;61348;53.392;-6.248;2022-11-14T06:40:59;6.50;;;2.60;;
43706;SDS011;61348;53.392;-6.248;2022-11-14T06:43:47;7.50;;;2.78;;
43706;SDS011;61348;53.392;-6.248;2022-11-14T06:46:17;5.25;;;2.50;;
43706;SDS011;61348;53.392;-6.248;2022-11-14T06:48:45;6.00;;;3.20;;
43706;SDS011;61348;53.392;-6.248;2022-11-14T06:51:13;6.15;;;2.78;;
43706;SDS011;61348;53.392;-6.248;2022-11-14T06:53:41;9.50;;;3.47;;
43706;SDS011;61348;53.392;-6.248;2022-11-14T06:56:09;6.45;;;2.50;;
43706;SDS011;61348;53.392;-6.248;2022-11-14T06:58:39;8.65;;;3.50;;
43706;SDS011;61348;53.392;-6.248;2022-11-14T07:01:12;2.72;;;2.30;;
43706;SDS011;61348;53.392;-6.248;2022-11-14T07:03:41;6.85;;;2.50;;
43706;SDS011;61348;53.392;-6.248;2022-11-14T07:06:10;8.55;;;2.83;;
43706;SDS011;61348;53.392;-6.248;2022-11-14T07:08:38;3.70;;;2.20;;
43706;SDS011;61348;53.392;-6.248;2022-11-14T07:13:34;5.65;;;3.28;;
43706;SDS011;61348;53.392;-6.248;2022-11-14T07:16:01;4.22;;;2.65;;
43706;SDS011;61348;53.392;-6.248;2022-11-14T07:18:29;4.63;;;2.92;;
43706;SDS011;61348;53.392;-6.248;2022-11-14T07:20:58;4.65;;;2.95;;
43706;SDS011;61348;53.392;-6.248;2022-11-14T07:23:26;8.23;;;4.05;;
43706;SDS011;61348;53.392;-6.248;2022-11-14T07:25:53;11.05;;;3.38;;
43706;SDS011;61348;53.392;-6.248;2022-11-14T07:28:19;4.88;;;2.72;;
43706;SDS011;61348;53.392;-6.248;2022-11-14T07:30:46;8.35;;;2.88;;
43706;SDS011;61348;53.392;-6.248;2022-11-14T07:33:13;6.97;;;2.30;;
43706;SDS011;61348;53.392;-6.248;2022-11-14T07:35:40;3.03;;;2.35;;
43706;SDS011;61348;53.392;-6.248;2022-11-14T07:38:06;7.00;;;2.25;;
43706;SDS011;61348;53.392;-6.248;2022-11-14T07:40:33;4.68;;;1.95;;
43706;SDS011;61348;53.392;-6.248;2022-11-14T07:43:01;5.57;;;1.90;;
43706;SDS011;61348;53.392;-6.248;2022-11-14T07:45:28;3.13;;;1.63;;
43706;SDS011;61348;53.392;-6.248;2022-11-14T07:47:55;3.85;;;1.80;;
43706;SDS011;61348;53.392;-6.248;2022-11-14T07:50:23;5.82;;;2.03;;
43706;SDS011;61348;53.392;-6.248;2022-11-14T07:52:51;3.40;;;1.70;;
43706;SDS011;61348;53.392;-6.248;2022-11-14T07:55:19;6.68;;;1.77;;
43706;SDS011;61348;53.392;-6.248;2022-11-14T07:57:47;4.13;;;1.60;;
43706;SDS011;61348;53.392;-6.248;2022-11-14T08:00:14;6.10;;;1.45;;
43706;SDS011;61348;53.392;-6.248;2022-11-14T08:02:42;3.08;;;1.40;;
43706;SDS011;61348;53.392;-6.248;2022-11-14T08:05:10;1.70;;;1.10;;
43706;SDS011;61348;53.392;-6.248;2022-11-14T08:07:37;4.10;;;1.02;;
43706;SDS011;61348;53.392;-6.248;2022-11-14T08:10:04;7.55;;;2.95;;
43706;SDS011;61348;53.392;-6.248;2022-11-14T08:12:31;4.30;;;1.10;;
43706;SDS011;61348;53.392;-6.248;2022-11-14T08:14:58;3.03;;;1.20;;
43706;SDS011;61348;53.392;-6.248;2022-11-14T08:17:25;4.88;;;1.30;;
43706;SDS011;61348;53.392;-6.248;2022-11-14T08:19:52;4.43;;;1.35;;
43706;SDS011;61348;53.392;-6.248;2022-11-14T08:22:18;1.83;;;1.05;;
43706;SDS011;61348;53.392;-6.248;2022-11-14T08:24:45;4.05;;;1.15;;
43706;SDS011;61348;53.392;-6.248;2022-11-14T08:27:12;3.95;;;1.17;;
43706;SDS011;61348;53.392;-6.248;2022-11-14T08:29:38;3.08;;;0.85;;
43706;SDS011;61348;53.392;-6.248;2022-11-14T08:32:05;2.40;;;1.40;;
43706;SDS011;61348;53.392;-6.248;2022-11-14T08:34:32;6.72;;;1.15;;
43706;SDS011;61348;53.392;-6.248;2022-11-14T08:37:00;5.75;;;1.00;;
43706;SDS011;61348;53.392;-6.248;2022-11-14T08:39:27;4.10;;;1.02;;
43706;SDS011;61348;53.392;-6.248;2022-11-14T08:41:54;4.60;;;1.40;;
43706;SDS011;61348;53.392;-6.248;2022-11-14T08:44:21;3.35;;;1.20;;
43706;SDS011;61348;53.392;-6.248;2022-11-14T08:46:48;7.55;;;1.48;;
43706;SDS011;61348;53.392;-6.248;2022-11-14T08:49:15;2.83;;;1.80;;
43706;SDS011;61348;53.392;-6.248;2022-11-14T08:51:42;9.85;;;1.42;;
43706;SDS011;61348;53.392;-6.248;2022-11-14T08:54:09;4.30;;;1.33;;
43706;SDS011;61348;53.392;-6.248;2022-11-14T08:56:36;5.18;;;1.33;;
43706;SDS011;61348;53.392;-6.248;2022-11-14T08:59:03;4.15;;;1.63;;
43706;SDS011;61348;53.392;-6.248;2022-11-14T09:01:29;5.38;;;1.65;;
43706;SDS011;61348;53.392;-6.248;2022-11-14T09:03:58;6.50;;;1.48;;
43706;SDS011;61348;53.392;-6.248;2022-11-14T09:06:27;3.95;;;1.23;;
43706;SDS011;61348;53.392;-6.248;2022-11-14T09:08:54;7.35;;;1.48;;
43706;SDS011;61348;53.392;-6.248;2022-11-14T09:11:21;8.32;;;1.33;;
43706;SDS011;61348;53.392;-6.248;2022-11-14T09:13:48;5.57;;;1.40;;
43706;SDS011;61348;53.392;-6.248;2022-11-14T09:16:14;8.80;;;1.65;;
43706;SDS011;61348;53.392;-6.248;2022-11-14T09:18:41;6.22;;;2.03;;
43706;SDS011;61348;53.392;-6.248;2022-11-14T09:21:09;8.80;;;2.47;;
43706;SDS011;61348;53.392;-6.248;2022-11-14T09:23:36;8.05;;;2.70;;
43706;SDS011;61348;53.392;-6.248;2022-11-14T09:26:03;6.28;;;2.00;;
43706;SDS011;61348;53.392;-6.248;2022-11-14T09:28:31;5.38;;;1.50;;
43706;SDS011;61348;53.392;-6.248;2022-11-14T09:30:59;5.80;;;1.40;;
43706;SDS011;61348;53.392;-6.248;2022-11-14T09:33:32;7.07;;;1.35;;
43706;SDS011;61348;53.392;-6.248;2022-11-14T09:36:00;4.60;;;1.50;;
43706;SDS011;61348;53.392;-6.248;2022-11-14T09:38:29;3.58;;;1.15;;
43706;SDS011;61348;53.392;-6.248;2022-11-14T09:46:31;8.48;;;3.22;;
43706;SDS011;61348;53.392;-6.248;2022-11-14T09:49:03;3.28;;;1.23;;
43706;SDS011;61348;53.392;-6.248;2022-11-14T09:51:38;5.38;;;1.17;;
43706;SDS011;61348;53.392;-6.248;2022-11-14T09:54:22;3.15;;;1.20;;
43706;SDS011;61348;53.392;-6.248;2022-11-14T09:56:52;8.70;;;1.40;;
43706;SDS011;61348;53.392;-6.248;2022-11-14T09:59:19;5.07;;;1.30;;
43706;SDS011;61348;53.392;-6.248;2022-11-14T10:04:26;4.38;;;1.60;;
43706;SDS011;61348;53.392;-6.248;2022-11-14T10:09:49;4.07;;;1.20;;
43706;SDS011;61348;53.392;-6.248;2022-11-14T10:14:56;3.67;;;0.82;;
43706;SDS011;61348;53.392;-6.248;2022-11-14T10:22:55;5.32;;;1.00;;
43706;SDS011;61348;53.392;-6.248;2022-11-14T10:30:55;6.43;;;1.48;;
43706;SDS011;61348;53.392;-6.248;2022-11-14T10:33:41;11.93;;;0.88;;
43706;SDS011;61348;53.392;-6.248;2022-11-14T10:39:08;3.10;;;1.00;;
43706;SDS011;61348;53.392;-6.248;2022-11-14T10:41:42;2.88;;;0.90;;
43706;SDS011;61348;53.392;-6.248;2022-11-14T10:44:28;4.43;;;0.93;;
43706;SDS011;61348;53.392;-6.248;2022-11-14T10:47:02;5.68;;;1.38;;
43706;SDS011;61348;53.392;-6.248;2022-11-14T10:49:36;5.05;;;1.00;;
43706;SDS011;61348;53.392;-6.248;2022-11-14T10:52:05;2.95;;;0.80;;
43706;SDS011;61348;53.392;-6.248;2022-11-14T10:55:13;2.50;;;0.80;;
43706;SDS011;61348;53.392;-6.248;2022-11-14T10:57:33;3.45;;;0.93;;
43706;SDS011;61348;53.392;-6.248;2022-11-14T11:00:07;2.75;;;0.70;;
43706;SDS011;61348;53.392;-6.248;2022-11-14T11:02:47;4.50;;;1.17;;
43706;SDS011;61348;53.392;-6.248;2022-11-14T11:05:23;5.90;;;1.30;;
43706;SDS011;61348;53.392;-6.248;2022-11-14T11:07:57;2.58;;;0.88;;
43706;SDS011;61348;53.392;-6.248;2022-11-14T11:11:04;5.95;;;1.00;;
43706;SDS011;61348;53.392;-6.248;2022-11-14T11:13:56;4.60;;;0.98;;
43706;SDS011;61348;53.392;-6.248;2022-11-14T11:16:26;3.65;;;1.33;;
43706;SDS011;61348;53.392;-6.248;2022-11-14T11:19:28;3.17;;;0.70;;
43706;SDS011;61348;53.392;-6.248;2022-11-14T11:21:52;4.40;;;1.20;;
43706;SDS011;61348;53.392;-6.248;2022-11-14T11:24:31;4.07;;;0.95;;
43706;SDS011;61348;53.392;-6.248;2022-11-14T11:29:45;4.53;;;1.55;;
43706;SDS011;61348;53.392;-6.248;2022-11-14T11:32:22;1.92;;;1.20;;
43706;SDS011;61348;53.392;-6.248;2022-11-14T11:34:51;0.68;;;0.43;;
43706;SDS011;61348;53.392;-6.248;2022-11-14T11:37:29;2.90;;;0.90;;
43706;SDS011;61348;53.392;-6.248;2022-11-14T11:40:03;2.45;;;0.50;;
43706;SDS011;61348;53.392;-6.248;2022-11-14T11:45:21;3.38;;;0.60;;
43706;SDS011;61348;53.392;-6.248;2022-11-14T11:47:56;3.47;;;0.70;;
43706;SDS011;61348;53.392;-6.248;2022-11-14T11:50:24;2.08;;;0.60;;
43706;SDS011;61348;53.392;-6.248;2022-11-14T11:55:43;5.68;;;0.85;;
43706;SDS011;61348;53.392;-6.248;2022-11-14T11:58:23;8.00;;;3.03;;
43706;SDS011;61348;53.392;-6.248;2022-11-14T12:00:53;4.85;;;0.77;;
43706;SDS011;61348;53.392;-6.248;2022-11-14T12:03:21;8.30;;;2.60;;
43706;SDS011;61348;53.392;-6.248;2022-11-14T12:05:54;9.52;;;2.10;;
43706;SDS011;61348;53.392;-6.248;2022-11-14T12:08:34;1.10;;;0.47;;
43706;SDS011;61348;53.392;-6.248;2022-11-14T12:11:13;1.40;;;0.30;;
43706;SDS011;61348;53.392;-6.248;2022-11-14T12:28:50;3.03;;;0.20;;
43706;SDS011;61348;53.392;-6.248;2022-11-14T12:31:26;5.47;;;1.48;;
43706;SDS011;61348;53.392;-6.248;2022-11-14T12:36:27;0.35;;;0.28;;
43706;SDS011;61348;53.392;-6.248;2022-11-14T12:38:56;1.45;;;0.30;;
43706;SDS011;61348;53.392;-6.248;2022-11-14T12:41:32;0.47;;;0.35;;
43706;SDS011;61348;53.392;-6.248;2022-11-14T12:53:05;5.78;;;0.55;;
43706;SDS011;61348;53.392;-6.248;2022-11-14T12:58:35;2.00;;;1.38;;
43706;SDS011;61348;53.392;-6.248;2022-11-14T13:00:54;0.63;;;0.57;;
43706;SDS011;61348;53.392;-6.248;2022-11-14T13:03:46;0.93;;;0.25;;
43706;SDS011;61348;53.392;-6.248;2022-11-14T13:11:57;1.92;;;0.13;;
43706;SDS011;61348;53.392;-6.248;2022-11-14T13:14:51;4.82;;;0.55;;
43706;SDS011;61348;53.392;-6.248;2022-11-14T13:17:38;1.33;;;0.17;;
43706;SDS011;61348;53.392;-6.248;2022-11-14T13:20:24;0.40;;;0.20;;
43706;SDS011;61348;53.392;-6.248;2022-11-14T13:33:48;0.63;;;0.25;;
43706;SDS011;61348;53.392;-6.248;2022-11-14T13:36:25;0.15;;;0.15;;
43706;SDS011;61348;53.392;-6.248;2022-11-14T13:51:04;1.08;;;0.70;;
43706;SDS011;61348;53.392;-6.248;2022-11-14T13:53:54;2.42;;;0.30;;
43706;SDS011;61348;53.392;-6.248;2022-11-14T13:56:31;0.38;;;0.28;;
43706;SDS011;61348;53.392;-6.248;2022-11-14T14:02:13;5.25;;;0.30;;
43706;SDS011;61348;53.392;-6.248;2022-11-14T14:15:24;0.88;;;0.30;;
43706;SDS011;61348;53.392;-6.248;2022-11-14T14:32:09;0.82;;;0.40;;
43706;SDS011;61348;53.392;-6.248;2022-11-14T14:34:38;2.45;;;0.40;;
43706;SDS011;61348;53.392;-6.248;2022-11-14T14:37:20;1.58;;;0.20;;
43706;SDS011;61348;53.392;-6.248;2022-11-14T14:40:04;1.58;;;0.30;;
43706;SDS011;61348;53.392;-6.248;2022-11-14T14:42:38;1.50;;;0.40;;
43706;SDS011;61348;53.392;-6.248;2022-11-14T14:45:12;3.33;;;0.52;;
43706;SDS011;61348;53.392;-6.248;2022-11-14T14:47:43;1.25;;;0.30;;
43706;SDS011;61348;53.392;-6.248;2022-11-14T14:50:22;4.35;;;0.38;;
43706;SDS011;61348;53.392;-6.248;2022-11-14T14:53:00;4.32;;;0.50;;
43706;SDS011;61348;53.392;-6.248;2022-11-14T14:55:29;2.75;;;0.30;;
43706;SDS011;61348;53.392;-6.248;2022-11-14T15:03:41;4.35;;;0.65;;
43706;SDS011;61348;53.392;-6.248;2022-11-14T15:06:23;3.83;;;0.50;;
43706;SDS011;61348;53.392;-6.248;2022-11-14T15:09:39;3.03;;;0.50;;
43706;SDS011;61348;53.392;-6.248;2022-11-14T15:11:52;1.23;;;0.60;;
43706;SDS011;61348;53.392;-6.248;2022-11-14T15:14:24;4.47;;;0.68;;
43706;SDS011;61348;53.392;-6.248;2022-11-14T15:16:55;2.38;;;0.47;;
43706;SDS011;61348;53.392;-6.248;2022-11-14T15:19:33;2.35;;;0.60;;
43706;SDS011;61348;53.392;-6.248;2022-11-14T15:24:36;3.30;;;0.50;;
43706;SDS011;61348;53.392;-6.248;2022-11-14T15:27:03;1.48;;;0.43;;
43706;SDS011;61348;53.392;-6.248;2022-11-14T15:29:31;4.43;;;0.70;;
43706;SDS011;61348;53.392;-6.248;2022-11-14T15:32:00;3.15;;;0.80;;
43706;SDS011;61348;53.392;-6.248;2022-11-14T15:34:35;6.65;;;0.80;;
43706;SDS011;61348;53.392;-6.248;2022-11-14T15:37:07;5.88;;;0.75;;
43706;SDS011;61348;53.392;-6.248;2022-11-14T15:39:40;3.80;;;0.75;;
43706;SDS011;61348;53.392;-6.248;2022-11-14T15:45:19;2.45;;;0.57;;
43706;SDS011;61348;53.392;-6.248;2022-11-14T15:47:59;6.63;;;0.82;;
43706;SDS011;61348;53.392;-6.248;2022-11-14T15:50:30;2.10;;;0.75;;
43706;SDS011;61348;53.392;-6.248;2022-11-14T15:55:27;5.03;;;0.65;;
43706;SDS011;61348;53.392;-6.248;2022-11-14T15:57:54;2.67;;;0.52;;
43706;SDS011;61348;53.392;-6.248;2022-11-14T16:00:48;4.78;;;0.80;;
43706;SDS011;61348;53.392;-6.248;2022-11-14T16:03:19;4.10;;;0.75;;
43706;SDS011;61348;53.392;-6.248;2022-11-14T16:05:47;6.05;;;1.10;;
43706;SDS011;61348;53.392;-6.248;2022-11-14T16:08:14;3.47;;;0.90;;
43706;SDS011;61348;53.392;-6.248;2022-11-14T16:10:40;8.77;;;3.40;;
43706;SDS011;61348;53.392;-6.248;2022-11-14T16:13:07;16.38;;;3.78;;
43706;SDS011;61348;53.392;-6.248;2022-11-14T16:15:36;5.72;;;0.80;;
43706;SDS011;61348;53.392;-6.248;2022-11-14T16:18:03;6.03;;;0.82;;
43706;SDS011;61348;53.392;-6.248;2022-11-14T16:20:31;12.00;;;2.15;;
43706;SDS011;61348;53.392;-6.248;2022-11-14T16:23:03;12.57;;;1.33;;
43706;SDS011;61348;53.392;-6.248;2022-11-14T16:25:31;8.27;;;1.65;;
43706;SDS011;61348;53.392;-6.248;2022-11-14T16:27:58;3.13;;;0.80;;
43706;SDS011;61348;53.392;-6.248;2022-11-14T16:30:25;5.47;;;1.42;;
43706;SDS011;61348;53.392;-6.248;2022-11-14T16:32:53;5.32;;;1.80;;
43706;SDS011;61348;53.392;-6.248;2022-11-14T16:35:22;4.13;;;1.38;;
43706;SDS011;61348;53.392;-6.248;2022-11-14T16:37:51;4.82;;;2.95;;
43706;SDS011;61348;53.392;-6.248;2022-11-14T16:40:20;9.30;;;3.53;;
43706;SDS011;61348;53.392;-6.248;2022-11-14T16:42:51;21.17;;;10.63;;
43706;SDS011;61348;53.392;-6.248;2022-11-14T16:45:20;5.18;;;2.05;;
43706;SDS011;61348;53.392;-6.248;2022-11-14T16:47:48;18.45;;;9.15;;
43706;SDS011;61348;53.392;-6.248;2022-11-14T16:50:15;29.10;;;15.90;;
43706;SDS011;61348;53.392;-6.248;2022-11-14T16:52:43;15.77;;;6.22;;
43706;SDS011;61348;53.392;-6.248;2022-11-14T16:55:10;34.83;;;18.70;;
43706;SDS011;61348;53.392;-6.248;2022-11-14T16:57:38;13.48;;;4.63;;
43706;SDS011;61348;53.392;-6.248;2022-11-14T17:00:06;6.45;;;2.85;;
43706;SDS011;61348;53.392;-6.248;2022-11-14T17:02:36;10.68;;;4.63;;
43706;SDS011;61348;53.392;-6.248;2022-11-14T17:05:03;14.43;;;5.15;;
43706;SDS011;61348;53.392;-6.248;2022-11-14T17:07:30;15.07;;;4.85;;
43706;SDS011;61348;53.392;-6.248;2022-11-14T17:09:59;11.48;;;5.53;;